sensor_id;sensor_type;location;lat;lon;timestamp;temperature;humidity
20998;DHT22;10657;51.276;6.390;2024-03-08T00:00:28;6.70;99.90
20998;DHT22;10657;51.276;6.390;2024-03-08T00:02:54;6.80;99.90
20998;DHT22;10657;51.276;6.390;2024-03-08T00:05:21;6.60;99.90
20998;DHT22;10657;51.276;6.390;2024-03-08T00:07:48;6.70;99.90
20998;DHT22;10657;51.276;6.390;2024-03-08T00:10:15;6.70;99.90
20998;DHT22;10657;51.276;6.390;2024-03-08T00:12:44;6.60;99.90
20998;DHT22;10657;51.276;6.390;2024-03-08T00:15:14;6.60;99.90
20998;DHT22;10657;51.276;6.390;2024-03-08T00:17:43;6.50;99.90
20998;DHT22;10657;51.276;6.390;2024-03-08T00:20:11;6.40;99.90
20998;DHT22;10657;51.276;6.390;2024-03-08T00:22:38;6.40;99.90
20998;DHT22;10657;51.276;6.390;2024-03-08T00:25:06;6.30;99.90
20998;DHT22;10657;51.276;6.390;2024-03-08T00:27:35;6.40;99.90
20998;DHT22;10657;51.276;6.390;2024-03-08T00:30:02;6.40;99.90
20998;DHT22;10657;51.276;6.390;2024-03-08T00:32:29;6.40;99.90
20998;DHT22;10657;51.276;6.390;2024-03-08T00:34:58;6.50;99.90
20998;DHT22;10657;51.276;6.390;2024-03-08T00:37:25;6.40;99.90
20998;DHT22;10657;51.276;6.390;2024-03-08T00:39:52;6.40;99.90
20998;DHT22;10657;51.276;6.390;2024-03-08T00:42:20;6.40;99.90
20998;DHT22;10657;51.276;6.390;2024-03-08T00:44:47;6.30;99.90
20998;DHT22;10657;51.276;6.390;2024-03-08T00:47:17;6.20;99.90
20998;DHT22;10657;51.276;6.390;2024-03-08T00:49:44;6.20;99.90
20998;DHT22;10657;51.276;6.390;2024-03-08T00:52:11;6.10;99.90
20998;DHT22;10657;51.276;6.390;2024-03-08T00:54:37;6.10;99.90
20998;DHT22;10657;51.276;6.390;2024-03-08T00:57:05;6.20;99.90
20998;DHT22;10657;51.276;6.390;2024-03-08T00:59:33;6.10;99.90
20998;DHT22;10657;51.276;6.390;2024-03-08T01:02:00;6.30;99.90
20998;DHT22;10657;51.276;6.390;2024-03-08T01:04:28;6.30;99.90
20998;DHT22;10657;51.276;6.390;2024-03-08T01:06:59;6.40;99.90
20998;DHT22;10657;51.276;6.390;2024-03-08T01:09:26;6.20;99.90
20998;DHT22;10657;51.276;6.390;2024-03-08T01:11:54;6.10;99.90
20998;DHT22;10657;51.276;6.390;2024-03-08T01:14:24;6.10;99.90
20998;DHT22;10657;51.276;6.390;2024-03-08T01:16:55;6.00;99.90
20998;DHT22;10657;51.276;6.390;2024-03-08T01:19:23;6.00;99.90
20998;DHT22;10657;51.276;6.390;2024-03-08T01:21:50;5.90;99.90
20998;DHT22;10657;51.276;6.390;2024-03-08T01:24:17;5.70;99.90
20998;DHT22;10657;51.276;6.390;2024-03-08T01:26:44;5.50;99.90
20998;DHT22;10657;51.276;6.390;2024-03-08T01:29:11;5.60;99.90
20998;DHT22;10657;51.276;6.390;2024-03-08T01:31:38;5.70;99.90
20998;DHT22;10657;51.276;6.390;2024-03-08T01:34:05;5.80;99.90
20998;DHT22;10657;51.276;6.390;2024-03-08T01:36:31;5.70;99.90
20998;DHT22;10657;51.276;6.390;2024-03-08T01:38:58;5.80;99.90
20998;DHT22;10657;51.276;6.390;2024-03-08T01:41:25;5.70;99.90
20998;DHT22;10657;51.276;6.390;2024-03-08T01:43:51;5.90;99.90
20998;DHT22;10657;51.276;6.390;2024-03-08T01:46:21;6.00;99.90
20998;DHT22;10657;51.276;6.390;2024-03-08T01:48:49;5.90;99.90
20998;DHT22;10657;51.276;6.390;2024-03-08T01:51:18;5.90;99.90
20998;DHT22;10657;51.276;6.390;2024-03-08T01:53:46;5.80;99.90
20998;DHT22;10657;51.276;6.390;2024-03-08T01:56:14;5.70;99.90
20998;DHT22;10657;51.276;6.390;2024-03-08T01:58:42;5.70;99.90
20998;DHT22;10657;51.276;6.390;2024-03-08T02:01:14;5.50;99.90
20998;DHT22;10657;51.276;6.390;2024-03-08T02:03:42;5.60;99.90
20998;DHT22;10657;51.276;6.390;2024-03-08T02:06:14;5.50;99.90
20998;DHT22;10657;51.276;6.390;2024-03-08T02:08:43;5.40;99.90
20998;DHT22;10657;51.276;6.390;2024-03-08T02:11:14;5.30;99.90
20998;DHT22;10657;51.276;6.390;2024-03-08T02:13:41;5.30;99.90
20998;DHT22;10657;51.276;6.390;2024-03-08T02:16:08;5.30;99.90
20998;DHT22;10657;51.276;6.390;2024-03-08T02:18:36;5.40;99.90
20998;DHT22;10657;51.276;6.390;2024-03-08T02:21:05;5.40;99.90
20998;DHT22;10657;51.276;6.390;2024-03-08T02:23:33;5.30;99.90
20998;DHT22;10657;51.276;6.390;2024-03-08T02:26:00;5.20;99.90
20998;DHT22;10657;51.276;6.390;2024-03-08T02:28:27;4.90;99.90
20998;DHT22;10657;51.276;6.390;2024-03-08T02:30:54;5.00;99.90
20998;DHT22;10657;51.276;6.390;2024-03-08T02:33:22;5.00;99.90
20998;DHT22;10657;51.276;6.390;2024-03-08T02:35:49;5.10;99.90
20998;DHT22;10657;51.276;6.390;2024-03-08T02:38:21;5.10;99.90
20998;DHT22;10657;51.276;6.390;2024-03-08T02:40:50;5.10;99.90
20998;DHT22;10657;51.276;6.390;2024-03-08T02:43:18;5.20;99.90
20998;DHT22;10657;51.276;6.390;2024-03-08T02:45:45;5.20;99.90
20998;DHT22;10657;51.276;6.390;2024-03-08T02:48:13;5.20;99.90
20998;DHT22;10657;51.276;6.390;2024-03-08T02:50:40;5.20;99.90
20998;DHT22;10657;51.276;6.390;2024-03-08T02:53:09;5.40;99.90
20998;DHT22;10657;51.276;6.390;2024-03-08T02:55:39;5.40;99.90
20998;DHT22;10657;51.276;6.390;2024-03-08T02:58:07;5.20;99.90
20998;DHT22;10657;51.276;6.390;2024-03-08T03:00:39;5.30;99.90
20998;DHT22;10657;51.276;6.390;2024-03-08T03:03:07;5.40;99.90
20998;DHT22;10657;51.276;6.390;2024-03-08T03:05:34;5.40;99.90
20998;DHT22;10657;51.276;6.390;2024-03-08T03:08:02;5.20;99.90
20998;DHT22;10657;51.276;6.390;2024-03-08T03:10:30;5.20;99.90
20998;DHT22;10657;51.276;6.390;2024-03-08T03:12:57;5.50;99.90
20998;DHT22;10657;51.276;6.390;2024-03-08T03:15:24;5.50;99.90
20998;DHT22;10657;51.276;6.390;2024-03-08T03:17:54;5.50;99.90
20998;DHT22;10657;51.276;6.390;2024-03-08T03:20:21;5.40;99.90
20998;DHT22;10657;51.276;6.390;2024-03-08T03:22:59;5.20;99.90
20998;DHT22;10657;51.276;6.390;2024-03-08T03:25:28;5.10;99.90
20998;DHT22;10657;51.276;6.390;2024-03-08T03:28:02;5.00;99.90
20998;DHT22;10657;51.276;6.390;2024-03-08T03:30:30;4.80;99.90
20998;DHT22;10657;51.276;6.390;2024-03-08T03:33:00;4.80;99.90
20998;DHT22;10657;51.276;6.390;2024-03-08T03:35:28;4.90;99.90
20998;DHT22;10657;51.276;6.390;2024-03-08T03:37:56;4.90;99.90
20998;DHT22;10657;51.276;6.390;2024-03-08T03:40:38;4.80;99.90
20998;DHT22;10657;51.276;6.390;2024-03-08T03:43:05;4.90;99.90
20998;DHT22;10657;51.276;6.390;2024-03-08T03:45:32;4.90;99.90
20998;DHT22;10657;51.276;6.390;2024-03-08T03:48:05;4.60;99.90
20998;DHT22;10657;51.276;6.390;2024-03-08T03:50:33;4.70;99.90
20998;DHT22;10657;51.276;6.390;2024-03-08T03:53:03;4.80;99.90
20998;DHT22;10657;51.276;6.390;2024-03-08T03:55:30;4.80;99.90
20998;DHT22;10657;51.276;6.390;2024-03-08T03:57:57;4.90;99.90
20998;DHT22;10657;51.276;6.390;2024-03-08T04:00:26;5.00;99.90
20998;DHT22;10657;51.276;6.390;2024-03-08T04:02:53;5.00;99.90
20998;DHT22;10657;51.276;6.390;2024-03-08T04:05:21;5.00;99.90
20998;DHT22;10657;51.276;6.390;2024-03-08T04:07:48;4.90;99.90
20998;DHT22;10657;51.276;6.390;2024-03-08T04:10:15;4.90;99.90
20998;DHT22;10657;51.276;6.390;2024-03-08T04:12:42;4.70;99.90
20998;DHT22;10657;51.276;6.390;2024-03-08T04:15:09;4.60;99.90
20998;DHT22;10657;51.276;6.390;2024-03-08T04:17:37;4.50;99.90
20998;DHT22;10657;51.276;6.390;2024-03-08T04:20:05;4.30;99.90
20998;DHT22;10657;51.276;6.390;2024-03-08T04:22:36;4.40;99.90
20998;DHT22;10657;51.276;6.390;2024-03-08T04:25:04;4.30;99.90
20998;DHT22;10657;51.276;6.390;2024-03-08T04:27:32;4.60;99.90
20998;DHT22;10657;51.276;6.390;2024-03-08T04:30:00;4.50;99.90
20998;DHT22;10657;51.276;6.390;2024-03-08T04:32:27;4.40;99.90
20998;DHT22;10657;51.276;6.390;2024-03-08T04:34:56;4.40;99.90
20998;DHT22;10657;51.276;6.390;2024-03-08T04:37:24;4.40;99.90
20998;DHT22;10657;51.276;6.390;2024-03-08T04:39:51;4.40;99.90
20998;DHT22;10657;51.276;6.390;2024-03-08T04:42:18;4.40;99.90
20998;DHT22;10657;51.276;6.390;2024-03-08T04:44:45;4.40;99.90
20998;DHT22;10657;51.276;6.390;2024-03-08T04:47:12;4.40;99.90
20998;DHT22;10657;51.276;6.390;2024-03-08T04:49:39;4.40;99.90
20998;DHT22;10657;51.276;6.390;2024-03-08T04:52:05;4.40;99.90
20998;DHT22;10657;51.276;6.390;2024-03-08T04:54:33;4.30;99.90
20998;DHT22;10657;51.276;6.390;2024-03-08T04:57:00;4.20;99.90
20998;DHT22;10657;51.276;6.390;2024-03-08T04:59:29;4.30;99.90
20998;DHT22;10657;51.276;6.390;2024-03-08T05:01:56;4.40;99.90
20998;DHT22;10657;51.276;6.390;2024-03-08T05:04:23;4.40;99.90
20998;DHT22;10657;51.276;6.390;2024-03-08T05:06:50;4.20;99.90
20998;DHT22;10657;51.276;6.390;2024-03-08T05:09:16;4.40;99.90
20998;DHT22;10657;51.276;6.390;2024-03-08T05:11:44;4.20;99.90
20998;DHT22;10657;51.276;6.390;2024-03-08T05:14:12;4.20;99.90
20998;DHT22;10657;51.276;6.390;2024-03-08T05:16:43;4.10;99.90
20998;DHT22;10657;51.276;6.390;2024-03-08T05:19:15;4.00;99.90
20998;DHT22;10657;51.276;6.390;2024-03-08T05:21:47;4.10;99.90
20998;DHT22;10657;51.276;6.390;2024-03-08T05:24:14;4.30;99.90
20998;DHT22;10657;51.276;6.390;2024-03-08T05:26:45;4.30;99.90
20998;DHT22;10657;51.276;6.390;2024-03-08T05:29:13;4.30;99.90
20998;DHT22;10657;51.276;6.390;2024-03-08T05:31:51;4.30;99.90
20998;DHT22;10657;51.276;6.390;2024-03-08T05:34:21;4.20;99.90
20998;DHT22;10657;51.276;6.390;2024-03-08T05:36:48;4.10;99.90
20998;DHT22;10657;51.276;6.390;2024-03-08T05:39:19;4.20;99.90
20998;DHT22;10657;51.276;6.390;2024-03-08T05:41:47;4.10;99.90
20998;DHT22;10657;51.276;6.390;2024-03-08T05:44:14;4.00;99.90
20998;DHT22;10657;51.276;6.390;2024-03-08T05:46:43;3.80;99.90
20998;DHT22;10657;51.276;6.390;2024-03-08T05:49:10;4.10;99.90
20998;DHT22;10657;51.276;6.390;2024-03-08T05:51:38;4.10;99.90
20998;DHT22;10657;51.276;6.390;2024-03-08T05:54:09;4.10;99.90
20998;DHT22;10657;51.276;6.390;2024-03-08T05:56:42;4.00;99.90
20998;DHT22;10657;51.276;6.390;2024-03-08T05:59:12;3.70;99.90
20998;DHT22;10657;51.276;6.390;2024-03-08T06:01:40;3.80;99.90
20998;DHT22;10657;51.276;6.390;2024-03-08T06:04:09;3.70;99.90
20998;DHT22;10657;51.276;6.390;2024-03-08T06:06:37;3.60;99.90
20998;DHT22;10657;51.276;6.390;2024-03-08T06:09:04;3.50;99.90
20998;DHT22;10657;51.276;6.390;2024-03-08T06:11:38;3.40;99.90
20998;DHT22;10657;51.276;6.390;2024-03-08T06:14:04;3.50;99.90
20998;DHT22;10657;51.276;6.390;2024-03-08T06:16:33;3.40;99.90
20998;DHT22;10657;51.276;6.390;2024-03-08T06:19:02;3.50;99.90
20998;DHT22;10657;51.276;6.390;2024-03-08T06:21:29;3.60;99.90
20998;DHT22;10657;51.276;6.390;2024-03-08T06:23:56;3.80;99.90
20998;DHT22;10657;51.276;6.390;2024-03-08T06:26:24;3.80;99.90
20998;DHT22;10657;51.276;6.390;2024-03-08T06:28:56;3.90;99.90
20998;DHT22;10657;51.276;6.390;2024-03-08T06:31:22;4.10;99.90
20998;DHT22;10657;51.276;6.390;2024-03-08T06:33:49;3.90;99.90
20998;DHT22;10657;51.276;6.390;2024-03-08T06:36:17;4.20;99.90
20998;DHT22;10657;51.276;6.390;2024-03-08T06:38:49;4.10;99.90
20998;DHT22;10657;51.276;6.390;2024-03-08T06:41:16;4.00;99.90
20998;DHT22;10657;51.276;6.390;2024-03-08T06:43:47;4.10;99.90
20998;DHT22;10657;51.276;6.390;2024-03-08T06:46:15;4.20;99.90
20998;DHT22;10657;51.276;6.390;2024-03-08T06:48:42;4.00;99.90
20998;DHT22;10657;51.276;6.390;2024-03-08T06:51:09;3.80;99.90
20998;DHT22;10657;51.276;6.390;2024-03-08T06:53:37;4.10;99.90
20998;DHT22;10657;51.276;6.390;2024-03-08T06:56:05;4.40;99.90
20998;DHT22;10657;51.276;6.390;2024-03-08T06:58:32;4.80;99.90
20998;DHT22;10657;51.276;6.390;2024-03-08T07:00:59;4.80;99.90
20998;DHT22;10657;51.276;6.390;2024-03-08T07:03:27;4.80;99.90
20998;DHT22;10657;51.276;6.390;2024-03-08T07:05:56;4.90;99.90
20998;DHT22;10657;51.276;6.390;2024-03-08T07:08:25;5.00;99.90
20998;DHT22;10657;51.276;6.390;2024-03-08T07:10:54;4.80;99.90
20998;DHT22;10657;51.276;6.390;2024-03-08T07:13:20;4.80;99.90
20998;DHT22;10657;51.276;6.390;2024-03-08T07:15:48;4.80;99.90
20998;DHT22;10657;51.276;6.390;2024-03-08T07:18:14;4.90;99.90
20998;DHT22;10657;51.276;6.390;2024-03-08T07:20:42;4.90;99.90
20998;DHT22;10657;51.276;6.390;2024-03-08T07:23:10;5.20;99.90
20998;DHT22;10657;51.276;6.390;2024-03-08T07:25:37;5.20;99.90
20998;DHT22;10657;51.276;6.390;2024-03-08T07:28:05;5.30;99.90
20998;DHT22;10657;51.276;6.390;2024-03-08T07:30:35;5.40;99.90
20998;DHT22;10657;51.276;6.390;2024-03-08T07:33:12;5.80;99.90
20998;DHT22;10657;51.276;6.390;2024-03-08T07:35:41;5.70;99.90
20998;DHT22;10657;51.276;6.390;2024-03-08T07:38:08;6.00;99.90
20998;DHT22;10657;51.276;6.390;2024-03-08T07:40:37;6.20;99.90
20998;DHT22;10657;51.276;6.390;2024-03-08T07:43:11;6.30;99.90
20998;DHT22;10657;51.276;6.390;2024-03-08T07:45:38;6.20;99.90
20998;DHT22;10657;51.276;6.390;2024-03-08T07:48:05;6.60;99.90
20998;DHT22;10657;51.276;6.390;2024-03-08T07:50:40;6.60;99.90
20998;DHT22;10657;51.276;6.390;2024-03-08T07:53:08;6.50;99.90
20998;DHT22;10657;51.276;6.390;2024-03-08T07:55:36;7.00;99.90
20998;DHT22;10657;51.276;6.390;2024-03-08T07:58:03;7.10;99.90
20998;DHT22;10657;51.276;6.390;2024-03-08T08:00:30;7.20;99.90
20998;DHT22;10657;51.276;6.390;2024-03-08T08:02:58;7.20;99.90
20998;DHT22;10657;51.276;6.390;2024-03-08T08:05:25;7.40;99.90
20998;DHT22;10657;51.276;6.390;2024-03-08T08:07:53;7.50;99.90
20998;DHT22;10657;51.276;6.390;2024-03-08T08:10:20;7.70;99.90
20998;DHT22;10657;51.276;6.390;2024-03-08T08:12:52;7.30;99.90
20998;DHT22;10657;51.276;6.390;2024-03-08T08:15:19;7.40;99.90
20998;DHT22;10657;51.276;6.390;2024-03-08T08:17:46;7.50;99.90
20998;DHT22;10657;51.276;6.390;2024-03-08T08:20:14;7.60;99.90
20998;DHT22;10657;51.276;6.390;2024-03-08T08:22:42;7.70;99.90
20998;DHT22;10657;51.276;6.390;2024-03-08T08:25:10;8.00;99.90
20998;DHT22;10657;51.276;6.390;2024-03-08T08:27:40;7.80;99.90
20998;DHT22;10657;51.276;6.390;2024-03-08T08:30:09;8.00;99.90
20998;DHT22;10657;51.276;6.390;2024-03-08T08:32:38;8.10;99.90
20998;DHT22;10657;51.276;6.390;2024-03-08T08:35:11;8.10;99.90
20998;DHT22;10657;51.276;6.390;2024-03-08T08:37:52;8.00;99.90
20998;DHT22;10657;51.276;6.390;2024-03-08T08:40:19;8.10;99.90
20998;DHT22;10657;51.276;6.390;2024-03-08T08:42:46;8.30;99.90
20998;DHT22;10657;51.276;6.390;2024-03-08T08:45:16;8.30;99.90
20998;DHT22;10657;51.276;6.390;2024-03-08T08:47:47;8.40;99.90
20998;DHT22;10657;51.276;6.390;2024-03-08T08:50:16;8.40;99.90
20998;DHT22;10657;51.276;6.390;2024-03-08T08:52:42;8.40;99.90
20998;DHT22;10657;51.276;6.390;2024-03-08T08:55:12;8.60;99.90
20998;DHT22;10657;51.276;6.390;2024-03-08T08:57:41;8.70;99.90
20998;DHT22;10657;51.276;6.390;2024-03-08T09:00:08;8.60;99.90
20998;DHT22;10657;51.276;6.390;2024-03-08T09:02:35;8.60;99.90
20998;DHT22;10657;51.276;6.390;2024-03-08T09:05:04;8.90;99.90
20998;DHT22;10657;51.276;6.390;2024-03-08T09:07:31;9.00;99.90
20998;DHT22;10657;51.276;6.390;2024-03-08T09:09:59;9.00;99.90
20998;DHT22;10657;51.276;6.390;2024-03-08T09:12:26;8.90;99.90
20998;DHT22;10657;51.276;6.390;2024-03-08T09:14:53;9.20;99.90
20998;DHT22;10657;51.276;6.390;2024-03-08T09:17:20;9.20;99.90
20998;DHT22;10657;51.276;6.390;2024-03-08T09:19:47;9.10;99.90
20998;DHT22;10657;51.276;6.390;2024-03-08T09:22:14;9.30;99.90
20998;DHT22;10657;51.276;6.390;2024-03-08T09:24:41;9.40;99.90
20998;DHT22;10657;51.276;6.390;2024-03-08T09:27:09;9.10;99.90
20998;DHT22;10657;51.276;6.390;2024-03-08T09:29:36;9.20;99.90
20998;DHT22;10657;51.276;6.390;2024-03-08T09:32:03;9.40;99.90
20998;DHT22;10657;51.276;6.390;2024-03-08T09:34:31;9.30;99.90
20998;DHT22;10657;51.276;6.390;2024-03-08T09:37:04;9.30;99.90
20998;DHT22;10657;51.276;6.390;2024-03-08T09:39:31;9.30;99.90
20998;DHT22;10657;51.276;6.390;2024-03-08T09:42:00;9.40;99.90
20998;DHT22;10657;51.276;6.390;2024-03-08T09:44:27;9.30;99.90
20998;DHT22;10657;51.276;6.390;2024-03-08T09:46:55;9.40;99.90
20998;DHT22;10657;51.276;6.390;2024-03-08T09:49:22;9.40;99.90
20998;DHT22;10657;51.276;6.390;2024-03-08T09:51:50;9.80;99.90
20998;DHT22;10657;51.276;6.390;2024-03-08T09:54:19;9.70;99.90
20998;DHT22;10657;51.276;6.390;2024-03-08T09:56:51;9.70;99.90
20998;DHT22;10657;51.276;6.390;2024-03-08T09:59:17;9.40;99.90
20998;DHT22;10657;51.276;6.390;2024-03-08T10:01:53;9.60;99.90
20998;DHT22;10657;51.276;6.390;2024-03-08T10:04:22;9.80;99.90
20998;DHT22;10657;51.276;6.390;2024-03-08T10:06:49;10.00;99.90
20998;DHT22;10657;51.276;6.390;2024-03-08T10:09:16;9.70;99.90
20998;DHT22;10657;51.276;6.390;2024-03-08T10:11:43;9.80;99.90
20998;DHT22;10657;51.276;6.390;2024-03-08T10:14:10;10.00;99.90
20998;DHT22;10657;51.276;6.390;2024-03-08T10:16:40;10.50;99.90
20998;DHT22;10657;51.276;6.390;2024-03-08T10:19:07;10.40;99.90
20998;DHT22;10657;51.276;6.390;2024-03-08T10:21:34;10.30;99.90
20998;DHT22;10657;51.276;6.390;2024-03-08T10:24:02;10.60;99.90
20998;DHT22;10657;51.276;6.390;2024-03-08T10:26:30;10.40;99.90
20998;DHT22;10657;51.276;6.390;2024-03-08T10:28:57;10.30;99.90
20998;DHT22;10657;51.276;6.390;2024-03-08T10:31:24;10.40;99.90
20998;DHT22;10657;51.276;6.390;2024-03-08T10:33:52;10.30;99.90
20998;DHT22;10657;51.276;6.390;2024-03-08T10:36:18;9.90;99.90
20998;DHT22;10657;51.276;6.390;2024-03-08T10:38:45;10.20;99.90
20998;DHT22;10657;51.276;6.390;2024-03-08T10:41:16;10.50;99.90
20998;DHT22;10657;51.276;6.390;2024-03-08T10:49:37;10.80;99.90
20998;DHT22;10657;51.276;6.390;2024-03-08T10:52:06;10.90;99.90
20998;DHT22;10657;51.276;6.390;2024-03-08T10:54:37;11.10;99.90
20998;DHT22;10657;51.276;6.390;2024-03-08T10:57:13;11.10;99.90
20998;DHT22;10657;51.276;6.390;2024-03-08T10:59:41;11.30;99.90
20998;DHT22;10657;51.276;6.390;2024-03-08T11:02:12;11.10;99.90
20998;DHT22;10657;51.276;6.390;2024-03-08T11:04:46;11.20;99.90
20998;DHT22;10657;51.276;6.390;2024-03-08T11:07:12;11.10;99.90
20998;DHT22;10657;51.276;6.390;2024-03-08T11:09:43;11.30;99.90
20998;DHT22;10657;51.276;6.390;2024-03-08T11:12:27;11.40;99.90
20998;DHT22;10657;51.276;6.390;2024-03-08T11:15:00;11.60;99.90
20998;DHT22;10657;51.276;6.390;2024-03-08T11:19:58;11.60;99.90
20998;DHT22;10657;51.276;6.390;2024-03-08T11:22:30;11.50;99.90
20998;DHT22;10657;51.276;6.390;2024-03-08T11:25:02;11.30;99.90
20998;DHT22;10657;51.276;6.390;2024-03-08T11:27:32;11.70;99.90
20998;DHT22;10657;51.276;6.390;2024-03-08T11:30:07;11.80;99.90
20998;DHT22;10657;51.276;6.390;2024-03-08T11:32:50;12.10;99.90
20998;DHT22;10657;51.276;6.390;2024-03-08T11:35:22;12.00;99.90
20998;DHT22;10657;51.276;6.390;2024-03-08T11:37:52;12.00;99.90
20998;DHT22;10657;51.276;6.390;2024-03-08T11:40:19;11.90;99.90
20998;DHT22;10657;51.276;6.390;2024-03-08T11:42:47;12.00;99.90
20998;DHT22;10657;51.276;6.390;2024-03-08T11:45:18;12.20;99.90
20998;DHT22;10657;51.276;6.390;2024-03-08T11:47:48;12.20;99.90
20998;DHT22;10657;51.276;6.390;2024-03-08T11:50:16;12.30;99.90
20998;DHT22;10657;51.276;6.390;2024-03-08T11:52:45;12.50;99.90
20998;DHT22;10657;51.276;6.390;2024-03-08T11:55:12;12.10;99.90
20998;DHT22;10657;51.276;6.390;2024-03-08T11:57:40;12.20;99.90
20998;DHT22;10657;51.276;6.390;2024-03-08T12:00:15;12.20;99.90
20998;DHT22;10657;51.276;6.390;2024-03-08T12:03:01;12.30;99.90
20998;DHT22;10657;51.276;6.390;2024-03-08T12:05:28;12.10;99.90
20998;DHT22;10657;51.276;6.390;2024-03-08T12:07:59;12.30;99.90
20998;DHT22;10657;51.276;6.390;2024-03-08T12:10:26;12.10;99.90
20998;DHT22;10657;51.276;6.390;2024-03-08T12:12:55;12.30;99.90
20998;DHT22;10657;51.276;6.390;2024-03-08T12:15:23;12.50;99.90
20998;DHT22;10657;51.276;6.390;2024-03-08T12:17:52;12.80;99.90
20998;DHT22;10657;51.276;6.390;2024-03-08T12:20:21;12.90;99.90
20998;DHT22;10657;51.276;6.390;2024-03-08T12:22:49;12.80;99.90
20998;DHT22;10657;51.276;6.390;2024-03-08T12:25:16;12.90;99.90
20998;DHT22;10657;51.276;6.390;2024-03-08T12:27:43;12.90;99.90
20998;DHT22;10657;51.276;6.390;2024-03-08T12:30:24;12.70;99.90
20998;DHT22;10657;51.276;6.390;2024-03-08T12:32:58;12.70;99.90
20998;DHT22;10657;51.276;6.390;2024-03-08T12:35:29;12.80;99.90
20998;DHT22;10657;51.276;6.390;2024-03-08T12:37:57;12.90;99.90
20998;DHT22;10657;51.276;6.390;2024-03-08T12:40:28;13.10;99.90
20998;DHT22;10657;51.276;6.390;2024-03-08T12:42:56;13.30;99.90
20998;DHT22;10657;51.276;6.390;2024-03-08T12:45:24;13.50;99.90
20998;DHT22;10657;51.276;6.390;2024-03-08T12:47:51;13.60;99.90
20998;DHT22;10657;51.276;6.390;2024-03-08T12:50:21;13.30;99.90
20998;DHT22;10657;51.276;6.390;2024-03-08T12:52:48;13.50;99.90
20998;DHT22;10657;51.276;6.390;2024-03-08T12:55:19;13.70;99.90
20998;DHT22;10657;51.276;6.390;2024-03-08T12:57:46;13.80;99.90
20998;DHT22;10657;51.276;6.390;2024-03-08T13:00:15;13.80;99.90
20998;DHT22;10657;51.276;6.390;2024-03-08T13:02:50;13.70;99.90
20998;DHT22;10657;51.276;6.390;2024-03-08T13:05:18;13.80;99.90
20998;DHT22;10657;51.276;6.390;2024-03-08T13:07:45;13.90;99.90
20998;DHT22;10657;51.276;6.390;2024-03-08T13:10:14;13.90;99.90
20998;DHT22;10657;51.276;6.390;2024-03-08T13:12:46;14.10;99.90
20998;DHT22;10657;51.276;6.390;2024-03-08T13:15:16;14.10;99.90
20998;DHT22;10657;51.276;6.390;2024-03-08T13:17:47;14.40;99.90
20998;DHT22;10657;51.276;6.390;2024-03-08T13:20:15;14.30;99.80
20998;DHT22;10657;51.276;6.390;2024-03-08T13:22:56;14.30;98.90
20998;DHT22;10657;51.276;6.390;2024-03-08T13:25:25;14.10;99.00
20998;DHT22;10657;51.276;6.390;2024-03-08T13:27:52;14.00;98.00
20998;DHT22;10657;51.276;6.390;2024-03-08T13:30:20;14.30;99.50
20998;DHT22;10657;51.276;6.390;2024-03-08T13:32:52;14.50;99.90
20998;DHT22;10657;51.276;6.390;2024-03-08T13:35:19;14.50;99.90
20998;DHT22;10657;51.276;6.390;2024-03-08T13:37:51;14.70;98.10
20998;DHT22;10657;51.276;6.390;2024-03-08T13:40:18;14.70;98.60
20998;DHT22;10657;51.276;6.390;2024-03-08T13:42:48;14.80;99.50
20998;DHT22;10657;51.276;6.390;2024-03-08T13:45:17;15.00;99.90
20998;DHT22;10657;51.276;6.390;2024-03-08T13:47:49;14.90;98.80
20998;DHT22;10657;51.276;6.390;2024-03-08T13:50:18;15.20;98.20
20998;DHT22;10657;51.276;6.390;2024-03-08T13:52:51;15.30;99.40
20998;DHT22;10657;51.276;6.390;2024-03-08T13:55:21;15.20;96.50
20998;DHT22;10657;51.276;6.390;2024-03-08T13:57:48;15.30;99.10
20998;DHT22;10657;51.276;6.390;2024-03-08T14:00:16;15.20;98.90
20998;DHT22;10657;51.276;6.390;2024-03-08T14:02:43;15.40;97.70
20998;DHT22;10657;51.276;6.390;2024-03-08T14:05:09;15.40;99.60
20998;DHT22;10657;51.276;6.390;2024-03-08T14:07:38;15.50;97.10
20998;DHT22;10657;51.276;6.390;2024-03-08T14:10:05;15.60;97.20
20998;DHT22;10657;51.276;6.390;2024-03-08T14:12:33;15.60;96.00
20998;DHT22;10657;51.276;6.390;2024-03-08T14:15:01;15.60;97.00
20998;DHT22;10657;51.276;6.390;2024-03-08T14:17:30;15.70;96.50
20998;DHT22;10657;51.276;6.390;2024-03-08T14:19:57;15.60;95.70
20998;DHT22;10657;51.276;6.390;2024-03-08T14:22:25;15.60;97.40
20998;DHT22;10657;51.276;6.390;2024-03-08T14:24:52;15.60;95.80
20998;DHT22;10657;51.276;6.390;2024-03-08T14:27:19;15.60;95.00
20998;DHT22;10657;51.276;6.390;2024-03-08T14:29:45;15.70;95.70
20998;DHT22;10657;51.276;6.390;2024-03-08T14:32:12;15.80;98.10
20998;DHT22;10657;51.276;6.390;2024-03-08T14:34:40;15.80;95.30
20998;DHT22;10657;51.276;6.390;2024-03-08T14:37:07;15.90;93.80
20998;DHT22;10657;51.276;6.390;2024-03-08T14:39:38;15.80;92.80
20998;DHT22;10657;51.276;6.390;2024-03-08T14:42:05;15.60;92.90
20998;DHT22;10657;51.276;6.390;2024-03-08T14:44:34;15.70;94.70
20998;DHT22;10657;51.276;6.390;2024-03-08T14:47:02;15.70;93.20
20998;DHT22;10657;51.276;6.390;2024-03-08T14:49:32;15.90;93.00
20998;DHT22;10657;51.276;6.390;2024-03-08T14:52:00;15.80;93.80
20998;DHT22;10657;51.276;6.390;2024-03-08T14:54:27;15.60;90.90
20998;DHT22;10657;51.276;6.390;2024-03-08T14:56:54;15.50;92.30
20998;DHT22;10657;51.276;6.390;2024-03-08T14:59:23;15.40;90.60
20998;DHT22;10657;51.276;6.390;2024-03-08T15:01:52;15.00;91.20
20998;DHT22;10657;51.276;6.390;2024-03-08T15:04:19;15.00;93.10
20998;DHT22;10657;51.276;6.390;2024-03-08T15:06:46;15.00;94.70
20998;DHT22;10657;51.276;6.390;2024-03-08T15:09:18;15.30;95.30
20998;DHT22;10657;51.276;6.390;2024-03-08T15:11:46;15.20;92.60
20998;DHT22;10657;51.276;6.390;2024-03-08T15:14:13;15.30;94.00
20998;DHT22;10657;51.276;6.390;2024-03-08T15:16:40;15.50;94.70
20998;DHT22;10657;51.276;6.390;2024-03-08T15:19:08;15.70;92.40
20998;DHT22;10657;51.276;6.390;2024-03-08T15:21:35;15.30;90.10
20998;DHT22;10657;51.276;6.390;2024-03-08T15:24:03;15.50;92.40
20998;DHT22;10657;51.276;6.390;2024-03-08T15:26:30;15.90;92.60
20998;DHT22;10657;51.276;6.390;2024-03-08T15:28:58;16.00;91.80
20998;DHT22;10657;51.276;6.390;2024-03-08T15:31:25;16.10;93.10
20998;DHT22;10657;51.276;6.390;2024-03-08T15:33:53;16.30;91.40
20998;DHT22;10657;51.276;6.390;2024-03-08T15:36:27;16.40;93.50
20998;DHT22;10657;51.276;6.390;2024-03-08T15:39:00;16.40;91.10
20998;DHT22;10657;51.276;6.390;2024-03-08T15:41:28;16.30;91.90
20998;DHT22;10657;51.276;6.390;2024-03-08T15:43:56;16.10;91.20
20998;DHT22;10657;51.276;6.390;2024-03-08T15:46:22;16.20;91.90
20998;DHT22;10657;51.276;6.390;2024-03-08T15:48:50;16.10;92.20
20998;DHT22;10657;51.276;6.390;2024-03-08T15:51:18;16.40;92.30
20998;DHT22;10657;51.276;6.390;2024-03-08T15:53:46;16.30;92.80
20998;DHT22;10657;51.276;6.390;2024-03-08T15:56:19;16.30;89.10